createdAt,value
2022-10-31T00:00:16.765Z,12.08
2022-10-31T00:01:16.487Z,12.03
2022-10-31T00:02:16.738Z,12
2022-10-31T00:03:16.471Z,12.17
2022-10-31T00:04:19.231Z,12.2
2022-10-31T00:05:16.538Z,12.12
2022-10-31T00:06:16.477Z,12.17
2022-10-31T00:07:16.485Z,12.21
2022-10-31T00:08:16.540Z,11.97
2022-10-31T00:09:16.557Z,12.23
2022-10-31T00:10:16.515Z,12.23
2022-10-31T00:11:16.482Z,12.21
2022-10-31T00:12:16.489Z,12.15
2022-10-31T00:13:17.889Z,12.2
2022-10-31T00:14:16.500Z,12.28
2022-10-31T00:15:19.419Z,12.25
2022-10-31T00:16:16.510Z,12.18
2022-10-31T00:17:16.532Z,12.32
2022-10-31T00:18:16.504Z,12.25
2022-10-31T00:19:16.530Z,12.2
2022-10-31T00:20:16.501Z,12.2
2022-10-31T00:21:16.531Z,12.21
2022-10-31T00:22:16.498Z,12.23
2022-10-31T00:23:16.542Z,12.15
2022-10-31T00:24:16.502Z,12.15
2022-10-31T00:25:16.549Z,12.15
2022-10-31T00:26:17.671Z,12.2
2022-10-31T00:27:16.540Z,12.12
2022-10-31T00:28:16.799Z,12.17
2022-10-31T00:29:16.573Z,12.11
2022-10-31T00:30:16.574Z,12.12
2022-10-31T00:31:16.589Z,12.17
2022-10-31T00:32:16.523Z,12.08
2022-10-31T00:33:16.587Z,12.17
2022-10-31T00:34:16.529Z,12.18
2022-10-31T00:35:16.554Z,12.07
2022-10-31T00:36:16.537Z,12
2022-10-31T00:37:19.350Z,12.07
2022-10-31T00:38:16.545Z,12.15
2022-10-31T00:39:16.562Z,12.18
2022-10-31T00:40:16.536Z,12.18
2022-10-31T00:41:19.388Z,12.11
2022-10-31T00:42:16.554Z,12.2
2022-10-31T00:43:16.633Z,12.2
2022-10-31T00:44:16.538Z,12.14
2022-10-31T00:45:16.647Z,12.12
2022-10-31T00:46:16.756Z,12.08
2022-10-31T00:47:19.322Z,11.99
2022-10-31T00:48:19.385Z,12.07
2022-10-31T00:49:16.574Z,11.97
2022-10-31T00:50:16.556Z,11.99
2022-10-31T00:51:16.579Z,11.97
2022-10-31T00:52:16.566Z,12.05
2022-10-31T00:53:16.552Z,11.99
2022-10-31T00:54:16.551Z,11.99
2022-10-31T00:55:16.567Z,12
2022-10-31T00:56:16.555Z,11.86
2022-10-31T00:57:16.563Z,11.91
2022-10-31T00:58:16.797Z,11.95
2022-10-31T00:59:16.562Z,11.97
2022-10-31T01:00:16.569Z,11.91
2022-10-31T01:01:17.033Z,12
2022-10-31T01:02:17.089Z,11.89
2022-10-31T01:03:16.574Z,11.88
2022-10-31T01:04:16.582Z,12
2022-10-31T01:05:16.607Z,12.05
2022-10-31T01:06:16.589Z,11.89
2022-10-31T01:07:16.591Z,11.95
2022-10-31T01:08:19.041Z,12
2022-10-31T01:09:16.602Z,11.86
2022-10-31T01:10:16.607Z,11.7
2022-10-31T01:11:16.604Z,11.65
2022-10-31T01:12:16.583Z,11.71
2022-10-31T01:13:16.777Z,11.63
2022-10-31T01:14:16.593Z,11.7
2022-10-31T01:15:16.600Z,11.68
2022-10-31T01:16:16.594Z,11.77
2022-10-31T01:17:16.668Z,11.73
2022-10-31T01:18:16.592Z,11.8
2022-10-31T01:19:16.631Z,11.8
2022-10-31T01:20:16.601Z,11.68
2022-10-31T01:21:16.612Z,11.68
2022-10-31T01:22:16.608Z,11.7
2022-10-31T01:23:16.602Z,11.65
2022-10-31T01:24:16.616Z,11.62
2022-10-31T01:25:16.614Z,11.62
2022-10-31T01:26:16.825Z,11.65
2022-10-31T01:27:16.597Z,11.63
2022-10-31T01:28:16.925Z,11.71
2022-10-31T01:29:16.614Z,11.58
2022-10-31T01:30:16.620Z,11.58
2022-10-31T01:31:19.601Z,11.71
2022-10-31T01:32:16.638Z,11.68
2022-10-31T01:33:16.670Z,11.68
2022-10-31T01:34:16.607Z,11.63
2022-10-31T01:35:16.641Z,11.62
2022-10-31T01:36:16.643Z,11.7
2022-10-31T01:37:16.667Z,11.7
2022-10-31T01:38:16.636Z,11.53
2022-10-31T01:39:16.638Z,11.67
2022-10-31T01:40:16.651Z,11.67
2022-10-31T01:41:16.644Z,11.73
2022-10-31T01:42:19.764Z,11.71
2022-10-31T01:43:16.800Z,11.7
2022-10-31T01:44:16.624Z,11.78
2022-10-31T01:45:16.719Z,11.67
2022-10-31T01:46:16.639Z,11.68
2022-10-31T01:47:16.710Z,11.76
2022-10-31T01:48:16.651Z,11.71
2022-10-31T01:49:16.704Z,11.76
2022-10-31T01:50:16.658Z,11.76
2022-10-31T01:51:16.645Z,11.81
2022-10-31T01:52:16.655Z,11.74
2022-10-31T01:53:22.976Z,11.7
2022-10-31T01:54:16.677Z,11.81
2022-10-31T01:55:16.655Z,11.91
2022-10-31T01:56:16.666Z,11.74
2022-10-31T01:57:16.676Z,11.73
2022-10-31T01:59:16.662Z,11.71
2022-10-31T02:00:16.662Z,11.76
2022-10-31T02:01:17.152Z,11.68
2022-10-31T02:02:17.348Z,11.68
2022-10-31T02:03:16.683Z,11.74
2022-10-31T02:04:19.525Z,11.71
2022-10-31T02:05:16.744Z,11.67
2022-10-31T02:06:16.668Z,11.63
2022-10-31T02:07:16.698Z,11.59
2022-10-31T02:08:16.710Z,11.58
2022-10-31T02:09:23.702Z,11.59
2022-10-31T02:10:16.678Z,11.52
2022-10-31T02:11:16.681Z,11.6
2022-10-31T02:12:16.674Z,11.59
2022-10-31T02:13:17.023Z,11.51
2022-10-31T02:14:16.696Z,11.44
2022-10-31T02:15:16.714Z,11.52
2022-10-31T02:16:16.693Z,11.58
2022-10-31T02:17:16.699Z,11.48
2022-10-31T02:18:16.696Z,11.53
2022-10-31T02:19:16.691Z,11.51
2022-10-31T02:20:19.891Z,11.48
2022-10-31T02:21:16.731Z,11.49
2022-10-31T02:22:16.697Z,11.44
2022-10-31T02:23:16.714Z,11.53
2022-10-31T02:24:16.722Z,11.4
2022-10-31T02:25:16.793Z,11.45
2022-10-31T02:26:16.707Z,11.49
2022-10-31T02:27:16.706Z,11.52
2022-10-31T02:28:19.934Z,11.44
2022-10-31T02:29:16.717Z,11.52
2022-10-31T02:30:16.703Z,11.48
2022-10-31T02:31:19.829Z,11.55
2022-10-31T02:32:16.727Z,11.55
2022-10-31T02:33:16.752Z,11.55
2022-10-31T02:34:16.724Z,11.51
2022-10-31T02:35:16.747Z,11.56
2022-10-31T02:36:16.787Z,11.51
2022-10-31T02:37:16.752Z,11.51
2022-10-31T02:38:16.729Z,11.49
2022-10-31T02:39:16.734Z,11.43
2022-10-31T02:40:16.737Z,11.49
2022-10-31T02:41:16.749Z,11.45
2022-10-31T02:42:19.763Z,11.55
2022-10-31T02:43:16.743Z,11.49
2022-10-31T02:44:16.739Z,11.49
2022-10-31T02:45:16.756Z,11.43
2022-10-31T02:46:16.849Z,11.52
2022-10-31T02:47:16.754Z,11.35
2022-10-31T02:48:16.739Z,11.43
2022-10-31T02:49:16.740Z,11.51
2022-10-31T02:50:16.754Z,11.44
2022-10-31T02:51:16.767Z,11.43
2022-10-31T02:52:16.811Z,11.4
2022-10-31T02:53:17.813Z,11.34
2022-10-31T02:54:16.775Z,11.44
2022-10-31T02:55:16.746Z,11.51
2022-10-31T02:56:16.770Z,11.49
2022-10-31T02:57:16.821Z,11.44
2022-10-31T02:58:16.929Z,11.45
2022-10-31T02:59:16.776Z,11.43
2022-10-31T03:00:16.772Z,11.37
2022-10-31T03:01:17.198Z,11.41
2022-10-31T03:02:17.432Z,11.35
2022-10-31T03:03:16.764Z,11.33
2022-10-31T03:04:19.648Z,11.37
2022-10-31T03:05:16.805Z,11.35
2022-10-31T03:06:16.840Z,11.48
2022-10-31T03:07:16.779Z,11.33
2022-10-31T03:08:16.876Z,11.45
2022-10-31T03:09:16.790Z,11.37
2022-10-31T03:10:16.807Z,11.45
2022-10-31T03:11:16.791Z,11.4
2022-10-31T03:12:16.827Z,11.45
2022-10-31T03:13:17.181Z,11.4
2022-10-31T03:14:16.849Z,11.33
2022-10-31T03:15:19.848Z,11.37
2022-10-31T03:16:16.872Z,11.45
2022-10-31T03:17:16.791Z,11.38
2022-10-31T03:18:16.805Z,11.52
2022-10-31T03:19:16.785Z,11.38
2022-10-31T03:20:16.800Z,11.45
2022-10-31T03:21:16.811Z,11.41
2022-10-31T03:22:16.814Z,11.44
2022-10-31T03:23:16.828Z,11.33
2022-10-31T03:24:16.852Z,11.37
2022-10-31T03:25:16.812Z,11.33
2022-10-31T03:26:16.833Z,11.38
2022-10-31T03:27:16.824Z,11.34
2022-10-31T03:28:17.152Z,11.27
2022-10-31T03:29:16.845Z,11.26
2022-10-31T03:30:16.811Z,11.31
2022-10-31T03:31:16.829Z,11.35
2022-10-31T03:32:16.815Z,11.38
2022-10-31T03:33:16.821Z,11.22
2022-10-31T03:34:16.816Z,11.23
2022-10-31T03:35:16.830Z,11.23
2022-10-31T03:36:16.852Z,11.2
2022-10-31T03:37:16.844Z,11.22
2022-10-31T03:38:16.828Z,11.19
2022-10-31T03:39:16.815Z,11.25
2022-10-31T03:40:16.900Z,11.26
2022-10-31T03:41:16.842Z,11.1
2022-10-31T03:42:16.839Z,11.2
2022-10-31T03:43:17.048Z,11.22
2022-10-31T03:44:16.837Z,11.31
2022-10-31T03:45:16.876Z,11.3
2022-10-31T03:46:16.913Z,11.3
2022-10-31T03:47:16.858Z,11.2
2022-10-31T03:48:16.831Z,11.41
2022-10-31T03:49:16.864Z,11.35
2022-10-31T03:50:16.847Z,11.4
2022-10-31T03:51:16.867Z,11.4
2022-10-31T03:52:16.870Z,11.4
2022-10-31T03:53:16.842Z,11.37
2022-10-31T03:54:16.843Z,11.44
2022-10-31T03:55:16.866Z,11.4
2022-10-31T03:56:16.932Z,11.37
2022-10-31T03:57:16.851Z,11.48
2022-10-31T03:58:17.305Z,11.43
2022-10-31T03:59:16.859Z,11.44
2022-10-31T04:00:16.865Z,11.41
2022-10-31T04:01:17.420Z,11.53
2022-10-31T04:02:17.525Z,11.48
2022-10-31T04:03:16.959Z,11.49
2022-10-31T04:04:16.868Z,11.37
2022-10-31T04:05:16.905Z,11.41
2022-10-31T04:06:16.948Z,11.35
2022-10-31T04:07:16.869Z,11.49
2022-10-31T04:08:16.874Z,11.44
2022-10-31T04:09:19.723Z,11.44
2022-10-31T04:10:16.874Z,11.49
2022-10-31T04:11:16.921Z,11.44
2022-10-31T04:12:16.935Z,11.51
2022-10-31T04:13:16.988Z,11.48
2022-10-31T04:14:16.893Z,11.38
2022-10-31T04:15:16.895Z,11.45
2022-10-31T04:16:21.568Z,11.45
2022-10-31T04:17:16.912Z,11.43
2022-10-31T04:18:17.069Z,11.45
2022-10-31T04:19:16.906Z,11.56
2022-10-31T04:20:20.026Z,11.37
2022-10-31T04:21:16.918Z,11.44
2022-10-31T04:22:16.909Z,11.51
2022-10-31T04:23:19.376Z,11.51
2022-10-31T04:24:16.973Z,11.56
2022-10-31T04:25:19.992Z,11.4
2022-10-31T04:26:16.791Z,11.38
2022-10-31T04:27:16.900Z,11.41
2022-10-31T04:28:17.173Z,11.44
2022-10-31T04:29:16.923Z,11.34
2022-10-31T04:30:16.904Z,11.34
2022-10-31T04:31:20.004Z,11.51
2022-10-31T04:32:16.940Z,11.48
2022-10-31T04:33:16.938Z,11.43
2022-10-31T04:34:16.909Z,11.43
2022-10-31T04:35:16.905Z,11.44
2022-10-31T04:36:18.250Z,11.44
2022-10-31T04:37:16.917Z,11.43
2022-10-31T04:38:16.931Z,11.44
2022-10-31T04:39:16.784Z,11.33
2022-10-31T04:40:17.135Z,11.31
2022-10-31T04:41:16.957Z,11.41
2022-10-31T04:42:16.926Z,11.44
2022-10-31T04:43:17.179Z,11.31
2022-10-31T04:44:17.002Z,11.44
2022-10-31T04:45:23.750Z,11.33
2022-10-31T04:46:16.968Z,11.48
2022-10-31T04:47:19.949Z,11.31
2022-10-31T04:48:16.990Z,11.33
2022-10-31T04:49:16.964Z,11.23
2022-10-31T04:50:16.948Z,11.26
2022-10-31T04:51:16.983Z,11.3
2022-10-31T04:52:16.939Z,11.31
2022-10-31T04:53:16.958Z,11.2
2022-10-31T04:54:16.943Z,11.23
2022-10-31T04:55:16.956Z,11.26
2022-10-31T04:56:16.983Z,11.07
2022-10-31T04:57:18.028Z,11.12
2022-10-31T04:58:22.760Z,11.04
2022-10-31T04:59:16.960Z,11.04
2022-10-31T05:00:17.014Z,11.07
2022-10-31T05:01:17.611Z,11.07
2022-10-31T05:02:17.509Z,11.07
2022-10-31T05:03:16.959Z,11.05
2022-10-31T05:04:16.963Z,11.02
2022-10-31T05:05:17.018Z,11.04
2022-10-31T05:06:16.998Z,11.02
2022-10-31T05:07:19.724Z,11.04
2022-10-31T05:08:16.990Z,10.92
2022-10-31T05:09:19.948Z,10.9
2022-10-31T05:10:16.994Z,10.9
2022-10-31T05:11:17.007Z,10.89
2022-10-31T05:12:16.988Z,10.87
2022-10-31T05:13:17.283Z,10.94
2022-10-31T05:14:16.994Z,10.86
2022-10-31T05:15:16.984Z,10.82
2022-10-31T05:16:17.091Z,10.83
2022-10-31T05:17:16.988Z,10.86
2022-10-31T05:18:17.002Z,10.77
2022-10-31T05:19:16.991Z,10.83
2022-10-31T05:20:19.809Z,10.92
2022-10-31T05:21:17.057Z,10.86
2022-10-31T05:22:16.997Z,10.87
2022-10-31T05:23:16.992Z,10.95
2022-10-31T05:24:17.007Z,11.02
2022-10-31T05:25:17.027Z,10.89
2022-10-31T05:26:17.009Z,10.92
2022-10-31T05:27:17.003Z,10.86
2022-10-31T05:28:17.041Z,10.84
2022-10-31T05:29:17.002Z,10.82
2022-10-31T05:30:20.825Z,10.87
2022-10-31T05:31:19.832Z,10.94
2022-10-31T05:32:17.059Z,10.95
2022-10-31T05:33:17.045Z,10.97
2022-10-31T05:34:17.010Z,10.89
2022-10-31T05:35:17.031Z,10.95
2022-10-31T05:36:17.045Z,10.92
2022-10-31T05:37:17.038Z,11.01
2022-10-31T05:38:20.031Z,11.05
2022-10-31T05:39:17.019Z,11.02
2022-10-31T05:40:17.123Z,10.95
2022-10-31T05:41:17.020Z,10.95
2022-10-31T05:42:19.870Z,10.89
2022-10-31T05:43:17.031Z,10.95
2022-10-31T05:44:17.043Z,10.92
2022-10-31T05:45:17.033Z,10.86
2022-10-31T05:46:17.036Z,10.9
2022-10-31T05:47:17.076Z,10.86
2022-10-31T05:48:17.050Z,10.77
2022-10-31T05:49:17.034Z,10.76
2022-10-31T05:50:17.038Z,10.8
2022-10-31T05:51:17.047Z,10.84
2022-10-31T05:52:17.090Z,10.89
2022-10-31T05:53:17.068Z,10.87
2022-10-31T05:54:20.560Z,10.9
2022-10-31T05:55:17.071Z,10.95
2022-10-31T05:56:17.093Z,10.9
2022-10-31T05:57:17.062Z,10.89
2022-10-31T05:58:17.050Z,10.83
2022-10-31T05:59:17.071Z,10.89
2022-10-31T06:00:17.062Z,10.84
2022-10-31T06:01:17.282Z,10.83
2022-10-31T06:02:17.133Z,10.76
2022-10-31T06:03:17.099Z,10.86
2022-10-31T06:04:17.427Z,10.82
2022-10-31T06:05:17.290Z,10.82
2022-10-31T06:06:17.084Z,10.83
2022-10-31T06:07:17.102Z,10.94
2022-10-31T06:08:17.088Z,10.94
2022-10-31T06:09:17.105Z,10.98
2022-10-31T06:10:17.076Z,10.94
2022-10-31T06:11:17.082Z,10.97
2022-10-31T06:12:16.934Z,10.92
2022-10-31T06:13:17.078Z,10.89
2022-10-31T06:14:17.076Z,10.9
2022-10-31T06:15:24.017Z,10.82
2022-10-31T06:16:17.084Z,10.82
2022-10-31T06:17:17.127Z,10.83
2022-10-31T06:18:17.075Z,10.83
2022-10-31T06:19:17.128Z,10.84
2022-10-31T06:20:17.100Z,10.87
2022-10-31T06:21:21.670Z,10.86
2022-10-31T06:22:17.109Z,10.92
2022-10-31T06:23:17.120Z,10.9
2022-10-31T06:24:17.106Z,10.94
2022-10-31T06:25:20.143Z,10.84
2022-10-31T06:26:17.112Z,11
2022-10-31T06:27:17.196Z,10.92
2022-10-31T06:28:17.101Z,10.9
2022-10-31T06:29:17.177Z,11
2022-10-31T06:30:17.104Z,11.01
2022-10-31T06:31:17.135Z,10.97
2022-10-31T06:32:17.145Z,11.04
2022-10-31T06:33:17.112Z,10.98
2022-10-31T06:34:17.115Z,10.98
2022-10-31T06:35:18.152Z,10.95
2022-10-31T06:37:17.159Z,10.95
2022-10-31T06:38:17.139Z,11.15
2022-10-31T06:39:17.139Z,11.02
2022-10-31T06:40:17.142Z,11
2022-10-31T06:41:17.187Z,11.07
2022-10-31T06:42:17.148Z,11.08
2022-10-31T06:43:17.143Z,11.01
2022-10-31T06:44:17.148Z,11.12
2022-10-31T06:45:17.148Z,11.05
2022-10-31T06:46:17.146Z,11.07
2022-10-31T06:47:20.186Z,11.07
2022-10-31T06:48:22.955Z,11.04
2022-10-31T06:49:17.131Z,11.07
2022-10-31T06:50:17.130Z,11.15
2022-10-31T06:51:17.188Z,11.16
2022-10-31T06:52:18.361Z,11.15
2022-10-31T06:53:17.565Z,11.1
2022-10-31T06:54:17.137Z,11.07
2022-10-31T06:55:17.140Z,11.07
2022-10-31T06:56:17.167Z,11.15
2022-10-31T06:57:17.210Z,11.2
2022-10-31T06:58:20.045Z,11.16
2022-10-31T06:59:17.190Z,11.15
2022-10-31T07:00:17.147Z,11.18
2022-10-31T07:01:17.784Z,11.15
2022-10-31T07:02:18.145Z,11.08
2022-10-31T07:03:18.294Z,11.1
2022-10-31T07:04:17.161Z,11.27
2022-10-31T07:05:17.197Z,11.23
2022-10-31T07:06:17.161Z,11.2
2022-10-31T07:07:17.363Z,11.27
2022-10-31T07:08:17.194Z,11.35
2022-10-31T07:09:20.225Z,11.41
2022-10-31T07:10:17.216Z,11.34
2022-10-31T07:11:17.161Z,11.4
2022-10-31T07:12:17.190Z,11.45
2022-10-31T07:13:17.195Z,11.41
2022-10-31T07:14:20.005Z,11.43
2022-10-31T07:15:17.236Z,11.44
2022-10-31T07:16:17.202Z,11.49
2022-10-31T07:17:17.057Z,11.53
2022-10-31T07:18:17.307Z,11.56
2022-10-31T07:19:17.196Z,11.48
2022-10-31T07:20:23.154Z,11.53
2022-10-31T07:21:17.182Z,11.62
2022-10-31T07:22:17.227Z,11.52
2022-10-31T07:23:17.227Z,11.45
2022-10-31T07:24:17.216Z,11.53
2022-10-31T07:25:20.226Z,11.51
2022-10-31T07:26:17.198Z,11.58
2022-10-31T07:27:17.219Z,11.65
2022-10-31T07:28:18.264Z,11.56
2022-10-31T07:29:17.263Z,11.58
2022-10-31T07:30:17.378Z,11.62
2022-10-31T07:31:17.245Z,11.7
2022-10-31T07:32:17.230Z,11.65
2022-10-31T07:33:17.209Z,11.73
2022-10-31T07:34:17.246Z,11.76
2022-10-31T07:35:17.205Z,11.58
2022-10-31T07:36:20.020Z,11.74
2022-10-31T07:37:17.217Z,11.81
2022-10-31T07:38:17.279Z,11.88
2022-10-31T07:39:17.229Z,11.88
2022-10-31T07:40:17.108Z,11.96
2022-10-31T07:41:17.219Z,11.95
2022-10-31T07:42:17.258Z,11.96
2022-10-31T07:43:19.261Z,12.08
2022-10-31T07:44:17.227Z,12.07
2022-10-31T07:45:17.253Z,12.2
2022-10-31T07:46:17.233Z,12.21
2022-10-31T07:47:20.356Z,12.28
2022-10-31T07:48:17.250Z,12.26
2022-10-31T07:49:17.233Z,12.33
2022-10-31T07:50:17.259Z,12.37
2022-10-31T07:51:17.344Z,12.47
2022-10-31T07:52:17.266Z,12.51
2022-10-31T07:53:17.239Z,12.65
2022-10-31T07:54:17.253Z,12.69
2022-10-31T07:55:17.413Z,12.63
2022-10-31T07:56:17.115Z,12.76
2022-10-31T07:57:21.378Z,12.81
2022-10-31T07:58:20.432Z,12.91
2022-10-31T07:59:17.245Z,12.84
2022-10-31T08:00:17.265Z,12.93
2022-10-31T08:01:17.310Z,12.88
2022-10-31T08:02:17.249Z,12.93
2022-10-31T08:03:17.288Z,12.91
2022-10-31T08:04:17.253Z,12.91
2022-10-31T08:05:17.271Z,12.95
2022-10-31T08:06:17.358Z,12.91
2022-10-31T08:07:17.333Z,13.09
2022-10-31T08:08:17.495Z,12.93
2022-10-31T08:09:20.071Z,12.87
2022-10-31T08:10:17.303Z,12.93
2022-10-31T08:11:17.322Z,12.95
2022-10-31T08:12:17.306Z,12.95
2022-10-31T08:13:17.310Z,12.99
2022-10-31T08:14:17.538Z,13.16
2022-10-31T08:15:17.282Z,13.16
2022-10-31T08:16:17.295Z,13.17
2022-10-31T08:17:17.301Z,13.39
2022-10-31T08:18:17.514Z,13.45
2022-10-31T08:19:17.296Z,13.46
2022-10-31T08:20:17.315Z,13.54
2022-10-31T08:21:17.283Z,13.52
2022-10-31T08:22:17.302Z,13.65
2022-10-31T08:23:17.370Z,13.7
2022-10-31T08:24:17.305Z,13.7
2022-10-31T08:25:17.336Z,13.64
2022-10-31T08:26:17.291Z,13.73
2022-10-31T08:27:17.312Z,13.7
2022-10-31T08:28:17.390Z,13.78
2022-10-31T08:29:17.296Z,13.68
2022-10-31T08:30:17.163Z,13.71
2022-10-31T08:31:17.315Z,13.8
2022-10-31T08:32:17.306Z,13.85
2022-10-31T08:33:17.385Z,13.83
2022-10-31T08:34:17.313Z,13.89
2022-10-31T08:35:17.339Z,14.07
2022-10-31T08:36:18.413Z,14.04
2022-10-31T08:37:17.313Z,14.01
2022-10-31T08:38:17.389Z,14.08
2022-10-31T08:39:17.347Z,14.08
2022-10-31T08:40:17.343Z,14.03
2022-10-31T08:41:17.335Z,14.08
2022-10-31T08:42:17.363Z,14.11
2022-10-31T08:43:17.380Z,13.94
2022-10-31T08:44:17.363Z,14.03
2022-10-31T08:45:17.324Z,14.08
2022-10-31T08:46:17.353Z,14.04
2022-10-31T08:47:17.339Z,14.08
2022-10-31T08:48:17.386Z,14.23
2022-10-31T08:49:17.360Z,14.13
2022-10-31T08:50:17.346Z,14.15
2022-10-31T08:51:17.338Z,14.13
2022-10-31T08:52:38.511Z,14.23
2022-10-31T08:53:17.362Z,14.38
2022-10-31T08:54:17.342Z,14.44
2022-10-31T08:55:17.348Z,14.44
2022-10-31T08:56:17.377Z,14.53
2022-10-31T08:57:20.380Z,14.48
2022-10-31T08:58:17.446Z,14.4
2022-10-31T08:59:17.370Z,14.38
2022-10-31T09:00:17.383Z,14.55
2022-10-31T09:01:17.866Z,14.66
2022-10-31T09:02:17.651Z,14.56
2022-10-31T09:03:21.440Z,14.61
2022-10-31T09:04:17.365Z,14.66
2022-10-31T09:05:17.392Z,14.86
2022-10-31T09:06:20.807Z,14.97
2022-10-31T09:07:25.125Z,15.02
2022-10-31T09:08:20.987Z,15.12
2022-10-31T09:09:17.378Z,15.17
2022-10-31T09:10:17.372Z,15.17
2022-10-31T09:11:17.401Z,15.26
2022-10-31T09:12:17.424Z,15.41
2022-10-31T09:13:17.382Z,15.43
2022-10-31T09:14:20.494Z,15.67
2022-10-31T09:15:17.381Z,15.85
2022-10-31T09:16:23.607Z,15.94
2022-10-31T09:17:17.393Z,15.96
2022-10-31T09:18:17.437Z,15.91
2022-10-31T09:19:20.546Z,15.84
2022-10-31T09:20:20.379Z,15.81
2022-10-31T09:21:17.429Z,15.96
2022-10-31T09:22:17.384Z,16.06
2022-10-31T09:23:17.380Z,16.06
2022-10-31T09:24:17.404Z,16.05
2022-10-31T09:25:20.432Z,16.05
2022-10-31T09:26:17.393Z,15.85
2022-10-31T09:27:17.399Z,16
2022-10-31T09:28:17.431Z,16.02
2022-10-31T09:29:17.478Z,16.05
2022-10-31T09:30:20.642Z,16.18
2022-10-31T09:31:17.411Z,16.22
2022-10-31T09:32:17.445Z,16.09
2022-10-31T09:33:20.555Z,16.13
2022-10-31T09:34:17.559Z,16.18
2022-10-31T09:35:21.659Z,16.44
2022-10-31T09:36:20.527Z,16.57
2022-10-31T09:37:17.437Z,16.49
2022-10-31T09:38:17.539Z,16.59
2022-10-31T09:39:17.409Z,16.65
2022-10-31T09:40:17.419Z,16.72
2022-10-31T09:41:20.519Z,16.68
2022-10-31T09:42:17.466Z,16.82
2022-10-31T09:43:17.273Z,16.94
2022-10-31T09:44:17.452Z,17.1
2022-10-31T09:45:17.484Z,16.86
2022-10-31T09:46:17.491Z,16.98
2022-10-31T09:48:18.152Z,17.22
2022-10-31T09:49:19.916Z,17.28
2022-10-31T09:50:17.497Z,17.44
2022-10-31T09:51:17.487Z,17.5
2022-10-31T09:52:20.296Z,17.68
2022-10-31T09:53:17.306Z,17.69
2022-10-31T09:54:17.532Z,17.6
2022-10-31T09:55:17.448Z,17.6
2022-10-31T09:56:17.458Z,17.69
2022-10-31T09:57:17.454Z,17.98
2022-10-31T09:58:17.516Z,18.11
2022-10-31T09:59:17.523Z,17.84
2022-10-31T10:00:17.530Z,17.91
2022-10-31T10:01:18.036Z,17.97
2022-10-31T10:02:17.684Z,18.15
2022-10-31T10:03:20.384Z,18.08
2022-10-31T10:04:23.363Z,18.37
2022-10-31T10:05:17.544Z,18.36
2022-10-31T10:06:17.462Z,18.49
2022-10-31T10:07:17.482Z,18.58
2022-10-31T10:08:17.492Z,18.66
2022-10-31T10:09:17.644Z,18.71
2022-10-31T10:10:17.469Z,18.74
2022-10-31T10:11:17.474Z,18.67
2022-10-31T10:12:17.482Z,18.63
2022-10-31T10:13:17.930Z,18.79
2022-10-31T10:14:20.555Z,18.92
2022-10-31T10:15:17.487Z,18.83
2022-10-31T10:16:17.484Z,18.83
2022-10-31T10:17:17.480Z,18.94
2022-10-31T10:18:17.507Z,18.7
2022-10-31T10:19:17.531Z,18.78
2022-10-31T10:20:20.615Z,18.45
2022-10-31T10:21:17.492Z,18.33
2022-10-31T10:22:17.495Z,18.39
2022-10-31T10:23:17.487Z,18.55
2022-10-31T10:24:17.555Z,18.46
2022-10-31T10:25:23.393Z,18.73
2022-10-31T10:26:17.627Z,18.89
2022-10-31T10:27:22.410Z,19.05
2022-10-31T10:28:17.557Z,19.17
2022-10-31T10:29:17.535Z,19.22
2022-10-31T10:30:17.526Z,19.27
2022-10-31T10:31:17.529Z,19.3
2022-10-31T10:32:17.563Z,19.37
2022-10-31T10:33:17.519Z,19.35
2022-10-31T10:34:17.628Z,19.29
2022-10-31T10:35:17.571Z,19.32
2022-10-31T10:36:20.445Z,19.3
2022-10-31T10:37:17.540Z,19.3
2022-10-31T10:38:17.525Z,19.41
2022-10-31T10:39:17.544Z,19.49
2022-10-31T10:40:17.542Z,19.63
2022-10-31T10:41:17.851Z,19.59
2022-10-31T10:42:17.622Z,19.45
2022-10-31T10:43:17.551Z,19.34
2022-10-31T10:44:17.561Z,19.29
2022-10-31T10:45:17.746Z,19.37
2022-10-31T10:46:17.227Z,19.56
2022-10-31T10:47:17.564Z,19.52
2022-10-31T10:48:17.563Z,19.63
2022-10-31T10:49:17.428Z,19.7
2022-10-31T10:50:17.572Z,19.74
2022-10-31T10:52:19.191Z,19.75
2022-10-31T10:52:58.890Z,19.78
2022-10-31T10:54:04.120Z,19.85
2022-10-31T10:54:58.854Z,19.57
2022-10-31T10:56:01.937Z,19.53
2022-10-31T10:56:58.827Z,19.56
2022-10-31T10:57:59.197Z,19.48
2022-10-31T10:58:58.831Z,19.52
2022-10-31T10:59:58.904Z,19.7
2022-10-31T11:00:59.282Z,19.74
2022-10-31T11:01:58.881Z,19.74
2022-10-31T11:02:58.854Z,19.56
2022-10-31T11:03:58.843Z,19.64
2022-10-31T11:04:58.867Z,19.74
2022-10-31T11:05:58.879Z,19.74
2022-10-31T11:07:01.929Z,19.79
2022-10-31T11:07:58.847Z,19.87
2022-10-31T11:08:58.857Z,19.77
2022-10-31T11:09:58.892Z,19.74
2022-10-31T11:10:58.852Z,19.74
2022-10-31T11:11:58.888Z,19.55
2022-10-31T11:12:59.315Z,19.72
2022-10-31T11:13:58.860Z,19.78
2022-10-31T11:14:59.008Z,19.78
2022-10-31T11:15:59.112Z,19.72
2022-10-31T11:16:59.076Z,19.52
2022-10-31T11:18:01.606Z,19.59
2022-10-31T11:18:58.912Z,19.55
2022-10-31T11:19:58.903Z,19.49
2022-10-31T11:20:59.240Z,19.45
2022-10-31T11:21:59.195Z,19.49
2022-10-31T11:22:59.230Z,19.56
2022-10-31T11:23:58.898Z,19.63
2022-10-31T11:24:58.902Z,19.62
2022-10-31T11:25:58.899Z,19.67
2022-10-31T11:26:58.889Z,19.66
2022-10-31T11:27:58.914Z,19.34
2022-10-31T11:29:01.741Z,19.41
2022-10-31T11:30:05.079Z,19.49
2022-10-31T11:30:58.849Z,19.49
2022-10-31T11:31:58.937Z,19.52
2022-10-31T11:32:59.382Z,19.56
2022-10-31T11:33:58.909Z,19.42
2022-10-31T11:34:58.919Z,19.3
2022-10-31T11:36:02.590Z,19.19
2022-10-31T11:36:58.929Z,19.27
2022-10-31T11:37:59.651Z,19.29
2022-10-31T11:38:58.918Z,19.44
2022-10-31T11:39:58.976Z,19.38
2022-10-31T11:40:58.937Z,19.59
2022-10-31T11:42:01.868Z,19.63
2022-10-31T11:42:58.924Z,19.55
2022-10-31T11:43:59.102Z,19.6
2022-10-31T11:44:58.942Z,19.7
2022-10-31T11:45:58.932Z,19.71
2022-10-31T11:46:58.918Z,19.81
2022-10-31T11:48:04.913Z,19.75
2022-10-31T11:48:58.938Z,19.64
2022-10-31T11:49:58.967Z,19.64
2022-10-31T11:50:58.928Z,19.57
2022-10-31T11:51:58.936Z,19.62
2022-10-31T11:52:58.995Z,19.64
2022-10-31T11:54:05.578Z,19.74
2022-10-31T11:54:59.004Z,19.71
2022-10-31T11:55:58.953Z,19.74
2022-10-31T11:56:58.957Z,19.75
2022-10-31T11:57:59.219Z,19.78
2022-10-31T11:58:58.945Z,19.74
2022-10-31T11:59:58.994Z,19.6
2022-10-31T12:01:01.853Z,19.72
2022-10-31T12:01:59.573Z,19.62
2022-10-31T12:02:59.359Z,19.6
2022-10-31T12:03:58.997Z,19.78
2022-10-31T12:04:59.038Z,19.79
2022-10-31T12:05:59.031Z,19.56
2022-10-31T12:06:59.045Z,19.64
2022-10-31T12:08:05.755Z,19.71
2022-10-31T12:08:58.953Z,19.81
2022-10-31T12:09:59.044Z,19.84
2022-10-31T12:10:58.982Z,19.82
2022-10-31T12:12:01.756Z,19.94
2022-10-31T12:12:59.440Z,19.96
2022-10-31T12:14:04.963Z,19.94
2022-10-31T12:14:59.046Z,20
2022-10-31T12:15:59.006Z,20.08
2022-10-31T12:16:59.001Z,19.96
2022-10-31T12:18:59.291Z,19.96
2022-10-31T12:20:00.861Z,20.04
2022-10-31T12:20:58.990Z,20
2022-10-31T12:21:59.007Z,19.99
2022-10-31T12:23:02.723Z,20.03
2022-10-31T12:23:59.006Z,20.03
2022-10-31T12:24:59.390Z,20.07
2022-10-31T12:25:59.035Z,20.15
2022-10-31T12:26:59.069Z,20.12
2022-10-31T12:27:58.995Z,20.02
2022-10-31T12:29:00.155Z,20.14
2022-10-31T12:29:59.076Z,20.02
2022-10-31T12:30:59.027Z,20.07
2022-10-31T12:31:59.026Z,20.14
2022-10-31T12:32:59.307Z,20.11
2022-10-31T12:34:02.178Z,20.07
2022-10-31T12:34:59.026Z,20.15
2022-10-31T12:35:59.030Z,20.04
2022-10-31T12:36:59.021Z,20.04
2022-10-31T12:37:59.326Z,20.03
2022-10-31T12:38:59.055Z,20.02
2022-10-31T12:39:59.029Z,20.08
2022-10-31T12:40:59.054Z,20.04
2022-10-31T12:41:59.083Z,19.9
2022-10-31T12:42:59.287Z,19.96
2022-10-31T12:43:59.487Z,19.87
2022-10-31T12:45:02.345Z,19.9
2022-10-31T12:45:59.041Z,20
2022-10-31T12:46:59.040Z,20.04
2022-10-31T12:47:59.076Z,20.03
2022-10-31T12:49:01.901Z,20.07
2022-10-31T12:49:59.100Z,19.9
2022-10-31T12:50:59.090Z,20
2022-10-31T12:51:59.032Z,19.94
2022-10-31T12:52:59.245Z,19.93
2022-10-31T12:53:59.082Z,19.93
2022-10-31T12:54:59.074Z,19.96
2022-10-31T12:56:00.146Z,20
2022-10-31T12:56:59.057Z,19.94
2022-10-31T12:57:59.390Z,19.79
2022-10-31T12:58:59.070Z,19.79
2022-10-31T12:59:59.090Z,19.74
2022-10-31T13:01:01.953Z,19.75